sensor_id;sensor_type;location;lat;lon;timestamp;P1;durP1;ratioP1;P2;durP2;ratioP2
69854;SDS011;57146;48.140;16.304;2023-04-28T00:00:16;6.95;;;1.67;;
69854;SDS011;57146;48.140;16.304;2023-04-28T00:02:44;5.28;;;1.27;;
69854;SDS011;57146;48.140;16.304;2023-04-28T00:05:11;5.23;;;1.20;;
69854;SDS011;57146;48.140;16.304;2023-04-28T00:07:38;5.88;;;1.30;;
69854;SDS011;57146;48.140;16.304;2023-04-28T00:10:05;6.78;;;1.95;;
69854;SDS011;57146;48.140;16.304;2023-04-28T00:12:32;6.32;;;1.60;;
69854;SDS011;57146;48.140;16.304;2023-04-28T00:14:59;6.32;;;1.52;;
69854;SDS011;57146;48.140;16.304;2023-04-28T00:17:26;5.23;;;1.33;;
69854;SDS011;57146;48.140;16.304;2023-04-28T00:19:53;5.75;;;1.30;;
69854;SDS011;57146;48.140;16.304;2023-04-28T00:22:21;5.00;;;1.50;;
69854;SDS011;57146;48.140;16.304;2023-04-28T00:24:48;5.90;;;1.50;;
69854;SDS011;57146;48.140;16.304;2023-04-28T00:27:14;6.38;;;1.30;;
69854;SDS011;57146;48.140;16.304;2023-04-28T00:29:43;5.43;;;1.40;;
69854;SDS011;57146;48.140;16.304;2023-04-28T00:32:10;7.20;;;1.42;;
69854;SDS011;57146;48.140;16.304;2023-04-28T00:34:37;5.85;;;1.48;;
69854;SDS011;57146;48.140;16.304;2023-04-28T00:37:04;5.40;;;1.40;;
69854;SDS011;57146;48.140;16.304;2023-04-28T00:39:31;5.38;;;1.70;;
69854;SDS011;57146;48.140;16.304;2023-04-28T00:41:58;6.07;;;1.40;;
69854;SDS011;57146;48.140;16.304;2023-04-28T00:44:25;5.80;;;1.48;;
69854;SDS011;57146;48.140;16.304;2023-04-28T00:46:52;9.63;;;1.73;;
69854;SDS011;57146;48.140;16.304;2023-04-28T00:49:19;5.53;;;1.52;;
69854;SDS011;57146;48.140;16.304;2023-04-28T00:51:46;6.00;;;1.38;;
69854;SDS011;57146;48.140;16.304;2023-04-28T00:54:13;6.33;;;1.40;;
69854;SDS011;57146;48.140;16.304;2023-04-28T00:56:40;7.32;;;1.90;;
69854;SDS011;57146;48.140;16.304;2023-04-28T00:59:09;6.80;;;2.13;;
69854;SDS011;57146;48.140;16.304;2023-04-28T01:01:36;5.93;;;1.70;;
69854;SDS011;57146;48.140;16.304;2023-04-28T01:04:03;5.78;;;1.90;;
69854;SDS011;57146;48.140;16.304;2023-04-28T01:06:32;6.37;;;2.03;;
69854;SDS011;57146;48.140;16.304;2023-04-28T01:09:01;6.75;;;1.90;;
69854;SDS011;57146;48.140;16.304;2023-04-28T01:11:28;6.50;;;2.20;;
69854;SDS011;57146;48.140;16.304;2023-04-28T01:13:55;7.57;;;2.72;;
69854;SDS011;57146;48.140;16.304;2023-04-28T01:16:23;6.88;;;2.40;;
69854;SDS011;57146;48.140;16.304;2023-04-28T01:18:51;7.47;;;2.60;;
69854;SDS011;57146;48.140;16.304;2023-04-28T01:21:29;8.60;;;2.95;;
69854;SDS011;57146;48.140;16.304;2023-04-28T01:23:59;8.57;;;2.70;;
69854;SDS011;57146;48.140;16.304;2023-04-28T01:26:27;8.38;;;3.00;;
69854;SDS011;57146;48.140;16.304;2023-04-28T01:28:54;9.48;;;2.60;;
69854;SDS011;57146;48.140;16.304;2023-04-28T01:31:22;7.00;;;2.77;;
69854;SDS011;57146;48.140;16.304;2023-04-28T01:33:49;7.38;;;2.63;;
69854;SDS011;57146;48.140;16.304;2023-04-28T01:36:16;10.30;;;2.50;;
69854;SDS011;57146;48.140;16.304;2023-04-28T01:38:42;7.75;;;2.25;;
69854;SDS011;57146;48.140;16.304;2023-04-28T01:41:11;7.32;;;2.72;;
69854;SDS011;57146;48.140;16.304;2023-04-28T01:43:38;7.30;;;2.63;;
69854;SDS011;57146;48.140;16.304;2023-04-28T01:46:05;9.50;;;2.55;;
69854;SDS011;57146;48.140;16.304;2023-04-28T01:48:32;7.78;;;2.65;;
69854;SDS011;57146;48.140;16.304;2023-04-28T01:50:59;7.97;;;2.53;;
69854;SDS011;57146;48.140;16.304;2023-04-28T01:53:26;7.32;;;2.63;;
69854;SDS011;57146;48.140;16.304;2023-04-28T01:55:53;9.33;;;2.50;;
69854;SDS011;57146;48.140;16.304;2023-04-28T01:58:21;7.28;;;2.40;;
69854;SDS011;57146;48.140;16.304;2023-04-28T02:00:48;7.95;;;2.22;;
69854;SDS011;57146;48.140;16.304;2023-04-28T02:03:17;6.72;;;2.47;;
69854;SDS011;57146;48.140;16.304;2023-04-28T02:05:44;6.63;;;2.38;;
69854;SDS011;57146;48.140;16.304;2023-04-28T02:08:11;8.07;;;2.50;;
69854;SDS011;57146;48.140;16.304;2023-04-28T02:10:38;8.68;;;2.70;;
69854;SDS011;57146;48.140;16.304;2023-04-28T02:13:05;8.85;;;2.90;;
69854;SDS011;57146;48.140;16.304;2023-04-28T02:15:32;8.05;;;2.30;;
69854;SDS011;57146;48.140;16.304;2023-04-28T02:17:59;7.13;;;2.90;;
69854;SDS011;57146;48.140;16.304;2023-04-28T02:20:26;8.50;;;2.57;;
69854;SDS011;57146;48.140;16.304;2023-04-28T02:22:53;6.82;;;2.55;;
69854;SDS011;57146;48.140;16.304;2023-04-28T02:25:20;6.75;;;2.20;;
69854;SDS011;57146;48.140;16.304;2023-04-28T02:27:47;7.35;;;2.20;;
69854;SDS011;57146;48.140;16.304;2023-04-28T02:30:14;7.55;;;2.50;;
69854;SDS011;57146;48.140;16.304;2023-04-28T02:32:40;9.17;;;2.57;;
69854;SDS011;57146;48.140;16.304;2023-04-28T02:35:07;7.20;;;2.17;;
69854;SDS011;57146;48.140;16.304;2023-04-28T02:37:34;6.78;;;2.40;;
69854;SDS011;57146;48.140;16.304;2023-04-28T02:40:01;8.38;;;2.60;;
69854;SDS011;57146;48.140;16.304;2023-04-28T02:42:28;7.75;;;2.53;;
69854;SDS011;57146;48.140;16.304;2023-04-28T02:44:56;7.07;;;2.37;;
69854;SDS011;57146;48.140;16.304;2023-04-28T02:47:23;8.02;;;2.28;;
69854;SDS011;57146;48.140;16.304;2023-04-28T02:49:50;6.28;;;2.20;;
69854;SDS011;57146;48.140;16.304;2023-04-28T02:52:17;6.15;;;2.05;;
69854;SDS011;57146;48.140;16.304;2023-04-28T02:54:43;8.30;;;2.50;;
69854;SDS011;57146;48.140;16.304;2023-04-28T02:57:10;8.67;;;2.80;;
69854;SDS011;57146;48.140;16.304;2023-04-28T02:59:37;11.00;;;2.10;;
69854;SDS011;57146;48.140;16.304;2023-04-28T03:02:05;9.20;;;2.50;;
69854;SDS011;57146;48.140;16.304;2023-04-28T03:04:33;6.53;;;2.03;;
69854;SDS011;57146;48.140;16.304;2023-04-28T03:07:00;5.60;;;1.90;;
69854;SDS011;57146;48.140;16.304;2023-04-28T03:09:26;6.30;;;2.30;;
69854;SDS011;57146;48.140;16.304;2023-04-28T03:11:53;8.25;;;2.65;;
69854;SDS011;57146;48.140;16.304;2023-04-28T03:14:20;7.55;;;2.70;;
69854;SDS011;57146;48.140;16.304;2023-04-28T03:16:47;7.50;;;2.65;;
69854;SDS011;57146;48.140;16.304;2023-04-28T03:19:14;9.18;;;2.58;;
69854;SDS011;57146;48.140;16.304;2023-04-28T03:21:42;7.43;;;2.57;;
69854;SDS011;57146;48.140;16.304;2023-04-28T03:24:11;7.50;;;2.33;;
69854;SDS011;57146;48.140;16.304;2023-04-28T03:26:38;7.55;;;2.22;;
69854;SDS011;57146;48.140;16.304;2023-04-28T03:29:05;7.07;;;2.20;;
69854;SDS011;57146;48.140;16.304;2023-04-28T03:31:32;7.90;;;2.33;;
69854;SDS011;57146;48.140;16.304;2023-04-28T03:34:00;8.67;;;2.60;;
69854;SDS011;57146;48.140;16.304;2023-04-28T03:36:27;7.18;;;2.70;;
69854;SDS011;57146;48.140;16.304;2023-04-28T03:38:58;7.47;;;2.13;;
69854;SDS011;57146;48.140;16.304;2023-04-28T03:41:25;7.05;;;2.35;;
69854;SDS011;57146;48.140;16.304;2023-04-28T03:44:12;7.13;;;2.45;;
69854;SDS011;57146;48.140;16.304;2023-04-28T03:46:45;8.37;;;2.33;;
69854;SDS011;57146;48.140;16.304;2023-04-28T03:49:13;8.57;;;2.22;;
69854;SDS011;57146;48.140;16.304;2023-04-28T03:51:40;8.23;;;2.40;;
69854;SDS011;57146;48.140;16.304;2023-04-28T03:54:08;6.13;;;2.30;;
69854;SDS011;57146;48.140;16.304;2023-04-28T03:56:36;7.32;;;2.50;;
69854;SDS011;57146;48.140;16.304;2023-04-28T03:59:03;8.70;;;2.30;;
69854;SDS011;57146;48.140;16.304;2023-04-28T04:01:30;7.80;;;2.55;;
69854;SDS011;57146;48.140;16.304;2023-04-28T04:03:57;8.60;;;2.60;;
69854;SDS011;57146;48.140;16.304;2023-04-28T04:06:24;8.00;;;2.20;;
69854;SDS011;57146;48.140;16.304;2023-04-28T04:08:51;7.38;;;2.38;;
69854;SDS011;57146;48.140;16.304;2023-04-28T04:11:18;8.13;;;2.77;;
69854;SDS011;57146;48.140;16.304;2023-04-28T04:13:45;10.38;;;2.50;;
69854;SDS011;57146;48.140;16.304;2023-04-28T04:16:15;12.65;;;2.80;;
69854;SDS011;57146;48.140;16.304;2023-04-28T04:18:41;7.95;;;2.38;;
69854;SDS011;57146;48.140;16.304;2023-04-28T04:21:21;8.02;;;2.20;;
69854;SDS011;57146;48.140;16.304;2023-04-28T04:23:50;8.47;;;2.60;;
69854;SDS011;57146;48.140;16.304;2023-04-28T04:26:17;8.98;;;2.83;;
69854;SDS011;57146;48.140;16.304;2023-04-28T04:28:46;7.88;;;2.28;;
69854;SDS011;57146;48.140;16.304;2023-04-28T04:31:14;10.10;;;2.97;;
69854;SDS011;57146;48.140;16.304;2023-04-28T04:33:42;7.80;;;2.75;;
69854;SDS011;57146;48.140;16.304;2023-04-28T04:36:09;8.53;;;2.50;;
69854;SDS011;57146;48.140;16.304;2023-04-28T04:38:36;9.75;;;2.97;;
69854;SDS011;57146;48.140;16.304;2023-04-28T04:41:14;10.02;;;2.95;;
69854;SDS011;57146;48.140;16.304;2023-04-28T04:43:42;10.35;;;3.10;;
69854;SDS011;57146;48.140;16.304;2023-04-28T04:46:09;9.63;;;2.97;;
69854;SDS011;57146;48.140;16.304;2023-04-28T04:48:36;7.23;;;2.53;;
69854;SDS011;57146;48.140;16.304;2023-04-28T04:51:03;7.30;;;2.55;;
69854;SDS011;57146;48.140;16.304;2023-04-28T04:53:30;7.95;;;2.63;;
69854;SDS011;57146;48.140;16.304;2023-04-28T04:55:57;6.32;;;2.47;;
69854;SDS011;57146;48.140;16.304;2023-04-28T04:58:25;8.57;;;2.67;;
69854;SDS011;57146;48.140;16.304;2023-04-28T05:01:27;8.23;;;2.57;;
69854;SDS011;57146;48.140;16.304;2023-04-28T05:03:54;6.57;;;2.40;;
69854;SDS011;57146;48.140;16.304;2023-04-28T05:06:22;8.77;;;3.05;;
69854;SDS011;57146;48.140;16.304;2023-04-28T05:08:49;8.68;;;2.97;;
69854;SDS011;57146;48.140;16.304;2023-04-28T05:11:16;6.85;;;2.33;;
69854;SDS011;57146;48.140;16.304;2023-04-28T05:13:44;7.63;;;2.37;;
69854;SDS011;57146;48.140;16.304;2023-04-28T05:16:11;10.23;;;2.65;;
69854;SDS011;57146;48.140;16.304;2023-04-28T05:18:57;10.02;;;2.70;;
69854;SDS011;57146;48.140;16.304;2023-04-28T05:21:25;6.97;;;2.72;;
69854;SDS011;57146;48.140;16.304;2023-04-28T05:23:52;9.25;;;2.85;;
69854;SDS011;57146;48.140;16.304;2023-04-28T05:26:19;8.00;;;2.60;;
69854;SDS011;57146;48.140;16.304;2023-04-28T05:28:46;7.80;;;2.28;;
69854;SDS011;57146;48.140;16.304;2023-04-28T05:31:13;9.65;;;2.47;;
69854;SDS011;57146;48.140;16.304;2023-04-28T05:33:40;7.85;;;2.58;;
69854;SDS011;57146;48.140;16.304;2023-04-28T05:36:08;10.35;;;3.00;;
69854;SDS011;57146;48.140;16.304;2023-04-28T05:38:35;9.23;;;3.10;;
69854;SDS011;57146;48.140;16.304;2023-04-28T05:41:02;7.70;;;2.80;;
69854;SDS011;57146;48.140;16.304;2023-04-28T05:43:29;13.55;;;3.50;;
69854;SDS011;57146;48.140;16.304;2023-04-28T05:45:57;9.48;;;3.42;;
69854;SDS011;57146;48.140;16.304;2023-04-28T05:48:24;7.50;;;2.40;;
69854;SDS011;57146;48.140;16.304;2023-04-28T05:50:51;8.27;;;2.60;;
69854;SDS011;57146;48.140;16.304;2023-04-28T05:53:18;7.65;;;2.40;;
69854;SDS011;57146;48.140;16.304;2023-04-28T05:55:48;11.35;;;2.83;;
69854;SDS011;57146;48.140;16.304;2023-04-28T05:58:15;7.25;;;2.58;;
69854;SDS011;57146;48.140;16.304;2023-04-28T06:00:42;7.95;;;2.50;;
69854;SDS011;57146;48.140;16.304;2023-04-28T06:03:09;7.90;;;2.60;;
69854;SDS011;57146;48.140;16.304;2023-04-28T06:05:37;7.25;;;2.40;;
69854;SDS011;57146;48.140;16.304;2023-04-28T06:08:05;9.13;;;2.47;;
69854;SDS011;57146;48.140;16.304;2023-04-28T06:10:32;7.43;;;2.60;;
69854;SDS011;57146;48.140;16.304;2023-04-28T06:13:01;7.32;;;2.70;;
69854;SDS011;57146;48.140;16.304;2023-04-28T06:15:29;8.27;;;2.57;;
69854;SDS011;57146;48.140;16.304;2023-04-28T06:17:56;10.27;;;2.75;;
69854;SDS011;57146;48.140;16.304;2023-04-28T06:20:24;8.35;;;2.83;;
69854;SDS011;57146;48.140;16.304;2023-04-28T06:22:53;7.65;;;2.67;;
69854;SDS011;57146;48.140;16.304;2023-04-28T06:25:19;7.47;;;2.65;;
69854;SDS011;57146;48.140;16.304;2023-04-28T06:27:48;7.87;;;2.50;;
69854;SDS011;57146;48.140;16.304;2023-04-28T06:30:17;7.28;;;2.63;;
69854;SDS011;57146;48.140;16.304;2023-04-28T06:32:44;9.68;;;2.92;;
69854;SDS011;57146;48.140;16.304;2023-04-28T06:35:12;7.47;;;2.30;;
69854;SDS011;57146;48.140;16.304;2023-04-28T06:37:39;8.98;;;2.67;;
69854;SDS011;57146;48.140;16.304;2023-04-28T06:40:06;7.13;;;2.30;;
69854;SDS011;57146;48.140;16.304;2023-04-28T06:42:35;7.70;;;2.60;;
69854;SDS011;57146;48.140;16.304;2023-04-28T06:45:09;8.35;;;2.80;;
69854;SDS011;57146;48.140;16.304;2023-04-28T06:47:36;7.82;;;2.35;;
69854;SDS011;57146;48.140;16.304;2023-04-28T06:50:07;6.35;;;2.35;;
69854;SDS011;57146;48.140;16.304;2023-04-28T06:52:35;8.80;;;2.30;;
69854;SDS011;57146;48.140;16.304;2023-04-28T06:55:08;7.40;;;2.42;;
69854;SDS011;57146;48.140;16.304;2023-04-28T06:57:36;7.68;;;2.42;;
69854;SDS011;57146;48.140;16.304;2023-04-28T07:00:02;5.72;;;2.42;;
69854;SDS011;57146;48.140;16.304;2023-04-28T07:02:30;6.57;;;2.35;;
69854;SDS011;57146;48.140;16.304;2023-04-28T07:04:57;6.03;;;2.33;;
69854;SDS011;57146;48.140;16.304;2023-04-28T07:07:24;7.18;;;2.20;;
69854;SDS011;57146;48.140;16.304;2023-04-28T07:09:51;7.18;;;2.75;;
69854;SDS011;57146;48.140;16.304;2023-04-28T07:12:18;6.88;;;2.05;;
69854;SDS011;57146;48.140;16.304;2023-04-28T07:14:58;8.05;;;2.45;;
69854;SDS011;57146;48.140;16.304;2023-04-28T07:17:39;8.27;;;2.20;;
69854;SDS011;57146;48.140;16.304;2023-04-28T07:20:06;7.15;;;2.20;;
69854;SDS011;57146;48.140;16.304;2023-04-28T07:22:34;8.23;;;2.22;;
69854;SDS011;57146;48.140;16.304;2023-04-28T07:25:01;6.20;;;2.05;;
69854;SDS011;57146;48.140;16.304;2023-04-28T07:27:28;7.05;;;2.10;;
69854;SDS011;57146;48.140;16.304;2023-04-28T07:29:54;7.03;;;2.10;;
69854;SDS011;57146;48.140;16.304;2023-04-28T07:32:22;6.60;;;1.90;;
69854;SDS011;57146;48.140;16.304;2023-04-28T07:34:49;5.63;;;1.40;;
69854;SDS011;57146;48.140;16.304;2023-04-28T07:37:17;7.97;;;2.60;;
69854;SDS011;57146;48.140;16.304;2023-04-28T07:39:44;6.05;;;1.80;;
69854;SDS011;57146;48.140;16.304;2023-04-28T07:42:11;5.83;;;1.50;;
69854;SDS011;57146;48.140;16.304;2023-04-28T07:44:38;7.88;;;1.35;;
69854;SDS011;57146;48.140;16.304;2023-04-28T07:47:05;7.60;;;1.83;;
69854;SDS011;57146;48.140;16.304;2023-04-28T07:49:31;7.25;;;1.65;;
69854;SDS011;57146;48.140;16.304;2023-04-28T07:51:58;5.97;;;1.80;;
69854;SDS011;57146;48.140;16.304;2023-04-28T07:54:26;7.03;;;1.63;;
69854;SDS011;57146;48.140;16.304;2023-04-28T07:56:53;7.55;;;1.88;;
69854;SDS011;57146;48.140;16.304;2023-04-28T07:59:21;5.30;;;1.30;;
69854;SDS011;57146;48.140;16.304;2023-04-28T08:01:49;8.35;;;1.20;;
69854;SDS011;57146;48.140;16.304;2023-04-28T08:04:16;5.68;;;1.20;;
69854;SDS011;57146;48.140;16.304;2023-04-28T08:06:43;6.57;;;1.10;;
69854;SDS011;57146;48.140;16.304;2023-04-28T08:09:10;3.40;;;1.00;;
69854;SDS011;57146;48.140;16.304;2023-04-28T08:11:37;6.88;;;1.20;;
69854;SDS011;57146;48.140;16.304;2023-04-28T08:14:05;4.47;;;1.17;;
69854;SDS011;57146;48.140;16.304;2023-04-28T08:16:31;4.00;;;1.00;;
69854;SDS011;57146;48.140;16.304;2023-04-28T08:18:58;4.73;;;0.90;;
69854;SDS011;57146;48.140;16.304;2023-04-28T08:21:26;3.70;;;0.98;;
69854;SDS011;57146;48.140;16.304;2023-04-28T08:23:52;4.78;;;1.02;;
69854;SDS011;57146;48.140;16.304;2023-04-28T08:26:19;4.00;;;1.00;;
69854;SDS011;57146;48.140;16.304;2023-04-28T08:28:46;10.35;;;1.90;;
69854;SDS011;57146;48.140;16.304;2023-04-28T08:31:13;6.87;;;1.00;;
69854;SDS011;57146;48.140;16.304;2023-04-28T08:33:40;4.18;;;0.82;;
69854;SDS011;57146;48.140;16.304;2023-04-28T08:36:07;5.05;;;0.90;;
69854;SDS011;57146;48.140;16.304;2023-04-28T08:38:34;4.20;;;1.08;;
69854;SDS011;57146;48.140;16.304;2023-04-28T08:41:02;3.63;;;0.70;;
69854;SDS011;57146;48.140;16.304;2023-04-28T08:43:31;10.53;;;1.30;;
69854;SDS011;57146;48.140;16.304;2023-04-28T08:46:05;6.47;;;0.77;;
69854;SDS011;57146;48.140;16.304;2023-04-28T08:48:42;6.13;;;1.05;;
69854;SDS011;57146;48.140;16.304;2023-04-28T08:51:14;3.35;;;0.60;;
69854;SDS011;57146;48.140;16.304;2023-04-28T08:53:43;7.95;;;1.10;;
69854;SDS011;57146;48.140;16.304;2023-04-28T08:56:35;4.87;;;0.70;;
69854;SDS011;57146;48.140;16.304;2023-04-28T08:59:02;5.47;;;1.17;;
69854;SDS011;57146;48.140;16.304;2023-04-28T09:01:30;3.85;;;0.70;;
69854;SDS011;57146;48.140;16.304;2023-04-28T09:04:01;3.65;;;0.82;;
69854;SDS011;57146;48.140;16.304;2023-04-28T09:06:36;4.53;;;0.88;;
69854;SDS011;57146;48.140;16.304;2023-04-28T09:09:23;5.60;;;0.97;;
69854;SDS011;57146;48.140;16.304;2023-04-28T09:11:55;5.55;;;0.90;;
69854;SDS011;57146;48.140;16.304;2023-04-28T09:14:27;4.13;;;0.85;;
69854;SDS011;57146;48.140;16.304;2023-04-28T09:16:54;5.22;;;1.10;;
69854;SDS011;57146;48.140;16.304;2023-04-28T09:19:22;4.50;;;0.82;;
69854;SDS011;57146;48.140;16.304;2023-04-28T09:24:30;7.15;;;1.10;;
69854;SDS011;57146;48.140;16.304;2023-04-28T09:27:05;4.28;;;0.90;;
69854;SDS011;57146;48.140;16.304;2023-04-28T09:29:33;4.85;;;0.77;;
69854;SDS011;57146;48.140;16.304;2023-04-28T09:32:13;4.75;;;0.70;;
69854;SDS011;57146;48.140;16.304;2023-04-28T09:34:45;6.13;;;0.70;;
69854;SDS011;57146;48.140;16.304;2023-04-28T09:37:16;3.85;;;0.60;;
69854;SDS011;57146;48.140;16.304;2023-04-28T09:39:46;4.80;;;0.68;;
69854;SDS011;57146;48.140;16.304;2023-04-28T09:45:14;5.55;;;0.77;;
69854;SDS011;57146;48.140;16.304;2023-04-28T09:47:43;3.30;;;0.63;;
69854;SDS011;57146;48.140;16.304;2023-04-28T09:50:13;5.40;;;0.90;;
69854;SDS011;57146;48.140;16.304;2023-04-28T09:52:47;4.18;;;0.55;;
69854;SDS011;57146;48.140;16.304;2023-04-28T09:55:23;4.53;;;0.60;;
69854;SDS011;57146;48.140;16.304;2023-04-28T09:57:52;3.90;;;0.80;;
69854;SDS011;57146;48.140;16.304;2023-04-28T10:00:21;4.93;;;0.47;;
69854;SDS011;57146;48.140;16.304;2023-04-28T10:02:48;4.00;;;0.73;;
69854;SDS011;57146;48.140;16.304;2023-04-28T10:05:16;8.82;;;1.05;;
69854;SDS011;57146;48.140;16.304;2023-04-28T10:07:44;2.60;;;0.35;;
69854;SDS011;57146;48.140;16.304;2023-04-28T10:10:11;5.32;;;0.73;;
69854;SDS011;57146;48.140;16.304;2023-04-28T10:12:39;3.83;;;0.57;;
69854;SDS011;57146;48.140;16.304;2023-04-28T10:15:06;2.75;;;0.60;;
69854;SDS011;57146;48.140;16.304;2023-04-28T10:17:35;3.80;;;0.70;;
69854;SDS011;57146;48.140;16.304;2023-04-28T10:20:04;3.92;;;0.40;;
69854;SDS011;57146;48.140;16.304;2023-04-28T10:27:43;3.13;;;0.57;;
69854;SDS011;57146;48.140;16.304;2023-04-28T10:30:12;4.53;;;0.65;;
69854;SDS011;57146;48.140;16.304;2023-04-28T10:38:07;3.97;;;0.50;;
69854;SDS011;57146;48.140;16.304;2023-04-28T10:40:36;6.55;;;0.63;;
69854;SDS011;57146;48.140;16.304;2023-04-28T10:43:04;3.58;;;0.80;;
69854;SDS011;57146;48.140;16.304;2023-04-28T10:48:15;4.35;;;0.43;;
69854;SDS011;57146;48.140;16.304;2023-04-28T10:58:46;4.00;;;0.75;;
69854;SDS011;57146;48.140;16.304;2023-04-28T11:08:48;4.68;;;0.68;;
69854;SDS011;57146;48.140;16.304;2023-04-28T11:11:18;6.25;;;0.65;;
69854;SDS011;57146;48.140;16.304;2023-04-28T11:13:48;4.55;;;0.50;;
69854;SDS011;57146;48.140;16.304;2023-04-28T11:16:17;4.93;;;0.47;;
69854;SDS011;57146;48.140;16.304;2023-04-28T11:21:25;2.55;;;0.30;;
69854;SDS011;57146;48.140;16.304;2023-04-28T11:23:52;3.83;;;0.40;;
69854;SDS011;57146;48.140;16.304;2023-04-28T11:26:19;4.25;;;0.57;;
69854;SDS011;57146;48.140;16.304;2023-04-28T11:28:50;3.83;;;0.70;;
69854;SDS011;57146;48.140;16.304;2023-04-28T11:31:19;3.60;;;0.50;;
69854;SDS011;57146;48.140;16.304;2023-04-28T11:34:21;6.65;;;0.88;;
69854;SDS011;57146;48.140;16.304;2023-04-28T11:36:44;2.92;;;0.40;;
69854;SDS011;57146;48.140;16.304;2023-04-28T11:39:11;3.97;;;0.60;;
69854;SDS011;57146;48.140;16.304;2023-04-28T11:41:39;4.53;;;0.50;;
69854;SDS011;57146;48.140;16.304;2023-04-28T11:44:14;3.58;;;0.73;;
69854;SDS011;57146;48.140;16.304;2023-04-28T11:49:14;7.68;;;0.73;;
69854;SDS011;57146;48.140;16.304;2023-04-28T11:51:41;5.25;;;0.73;;
69854;SDS011;57146;48.140;16.304;2023-04-28T11:54:09;3.40;;;0.67;;
69854;SDS011;57146;48.140;16.304;2023-04-28T11:56:38;4.00;;;0.47;;
69854;SDS011;57146;48.140;16.304;2023-04-28T11:59:09;6.60;;;0.90;;
69854;SDS011;57146;48.140;16.304;2023-04-28T12:01:54;6.72;;;0.85;;
69854;SDS011;57146;48.140;16.304;2023-04-28T12:04:26;3.85;;;0.40;;
69854;SDS011;57146;48.140;16.304;2023-04-28T12:07:11;5.60;;;0.97;;
69854;SDS011;57146;48.140;16.304;2023-04-28T12:09:40;6.80;;;0.70;;
69854;SDS011;57146;48.140;16.304;2023-04-28T12:12:10;4.50;;;0.70;;
69854;SDS011;57146;48.140;16.304;2023-04-28T12:14:58;3.28;;;0.30;;
69854;SDS011;57146;48.140;16.304;2023-04-28T12:17:27;3.30;;;0.45;;
69854;SDS011;57146;48.140;16.304;2023-04-28T12:19:56;4.90;;;0.50;;
69854;SDS011;57146;48.140;16.304;2023-04-28T12:22:25;7.50;;;0.63;;
69854;SDS011;57146;48.140;16.304;2023-04-28T12:27:36;7.82;;;0.45;;
69854;SDS011;57146;48.140;16.304;2023-04-28T12:32:47;2.63;;;0.43;;
69854;SDS011;57146;48.140;16.304;2023-04-28T12:35:15;3.75;;;0.45;;
69854;SDS011;57146;48.140;16.304;2023-04-28T12:37:42;4.30;;;0.40;;
69854;SDS011;57146;48.140;16.304;2023-04-28T12:40:09;5.00;;;0.65;;
69854;SDS011;57146;48.140;16.304;2023-04-28T12:42:36;3.13;;;0.40;;
69854;SDS011;57146;48.140;16.304;2023-04-28T12:45:04;4.57;;;0.60;;
69854;SDS011;57146;48.140;16.304;2023-04-28T12:47:32;14.55;;;0.70;;
69854;SDS011;57146;48.140;16.304;2023-04-28T12:49:59;4.00;;;0.50;;
69854;SDS011;57146;48.140;16.304;2023-04-28T12:52:26;3.55;;;0.43;;
69854;SDS011;57146;48.140;16.304;2023-04-28T12:54:53;7.10;;;0.65;;
69854;SDS011;57146;48.140;16.304;2023-04-28T12:57:19;4.13;;;0.53;;
69854;SDS011;57146;48.140;16.304;2023-04-28T12:59:46;4.35;;;0.50;;
69854;SDS011;57146;48.140;16.304;2023-04-28T13:02:13;4.35;;;0.60;;
69854;SDS011;57146;48.140;16.304;2023-04-28T13:04:40;4.30;;;0.70;;
69854;SDS011;57146;48.140;16.304;2023-04-28T13:07:08;4.03;;;0.50;;
69854;SDS011;57146;48.140;16.304;2023-04-28T13:09:35;5.27;;;0.80;;
69854;SDS011;57146;48.140;16.304;2023-04-28T13:12:04;3.72;;;0.50;;
69854;SDS011;57146;48.140;16.304;2023-04-28T13:14:30;3.28;;;0.50;;
69854;SDS011;57146;48.140;16.304;2023-04-28T13:16:57;3.85;;;0.40;;
69854;SDS011;57146;48.140;16.304;2023-04-28T13:19:24;5.95;;;0.60;;
69854;SDS011;57146;48.140;16.304;2023-04-28T13:21:51;2.93;;;0.40;;
69854;SDS011;57146;48.140;16.304;2023-04-28T13:24:18;3.30;;;0.60;;
69854;SDS011;57146;48.140;16.304;2023-04-28T13:26:45;3.25;;;0.60;;
69854;SDS011;57146;48.140;16.304;2023-04-28T13:29:12;5.25;;;0.63;;
69854;SDS011;57146;48.140;16.304;2023-04-28T13:31:38;4.10;;;0.60;;
69854;SDS011;57146;48.140;16.304;2023-04-28T13:34:06;3.83;;;0.70;;
69854;SDS011;57146;48.140;16.304;2023-04-28T13:36:33;4.07;;;0.60;;
69854;SDS011;57146;48.140;16.304;2023-04-28T13:39:01;4.25;;;0.68;;
69854;SDS011;57146;48.140;16.304;2023-04-28T13:41:28;4.03;;;0.65;;
69854;SDS011;57146;48.140;16.304;2023-04-28T13:43:55;3.05;;;0.45;;
69854;SDS011;57146;48.140;16.304;2023-04-28T13:46:22;3.20;;;0.50;;
69854;SDS011;57146;48.140;16.304;2023-04-28T13:48:49;3.58;;;0.77;;
69854;SDS011;57146;48.140;16.304;2023-04-28T13:51:15;3.60;;;0.50;;
69854;SDS011;57146;48.140;16.304;2023-04-28T13:53:42;4.68;;;0.80;;
69854;SDS011;57146;48.140;16.304;2023-04-28T13:56:09;2.80;;;0.60;;
69854;SDS011;57146;48.140;16.304;2023-04-28T13:58:36;3.20;;;0.50;;
69854;SDS011;57146;48.140;16.304;2023-04-28T14:01:03;6.88;;;1.10;;
69854;SDS011;57146;48.140;16.304;2023-04-28T14:03:30;4.40;;;0.70;;
69854;SDS011;57146;48.140;16.304;2023-04-28T14:05:58;2.80;;;0.40;;
69854;SDS011;57146;48.140;16.304;2023-04-28T14:08:24;4.20;;;0.80;;
69854;SDS011;57146;48.140;16.304;2023-04-28T14:10:53;2.80;;;0.57;;
69854;SDS011;57146;48.140;16.304;2023-04-28T14:13:21;4.07;;;0.98;;
69854;SDS011;57146;48.140;16.304;2023-04-28T14:15:47;3.67;;;0.70;;
69854;SDS011;57146;48.140;16.304;2023-04-28T14:18:25;4.05;;;0.70;;
69854;SDS011;57146;48.140;16.304;2023-04-28T14:20:53;3.65;;;0.80;;
69854;SDS011;57146;48.140;16.304;2023-04-28T14:23:23;4.43;;;1.07;;
69854;SDS011;57146;48.140;16.304;2023-04-28T14:25:51;3.80;;;0.60;;
69854;SDS011;57146;48.140;16.304;2023-04-28T14:28:21;4.65;;;0.80;;
69854;SDS011;57146;48.140;16.304;2023-04-28T14:30:48;2.90;;;0.63;;
69854;SDS011;57146;48.140;16.304;2023-04-28T14:33:15;3.55;;;0.57;;
69854;SDS011;57146;48.140;16.304;2023-04-28T14:35:42;3.77;;;0.80;;
69854;SDS011;57146;48.140;16.304;2023-04-28T14:38:09;4.18;;;0.80;;
69854;SDS011;57146;48.140;16.304;2023-04-28T14:40:36;3.22;;;0.65;;
69854;SDS011;57146;48.140;16.304;2023-04-28T14:43:03;3.63;;;0.70;;
69854;SDS011;57146;48.140;16.304;2023-04-28T14:45:30;4.47;;;0.80;;
69854;SDS011;57146;48.140;16.304;2023-04-28T14:47:57;3.43;;;0.90;;
69854;SDS011;57146;48.140;16.304;2023-04-28T14:50:24;3.20;;;0.73;;
69854;SDS011;57146;48.140;16.304;2023-04-28T14:52:51;4.82;;;0.70;;
69854;SDS011;57146;48.140;16.304;2023-04-28T14:55:18;3.00;;;0.73;;
69854;SDS011;57146;48.140;16.304;2023-04-28T14:57:45;3.58;;;0.80;;
69854;SDS011;57146;48.140;16.304;2023-04-28T15:00:12;3.83;;;1.00;;
69854;SDS011;57146;48.140;16.304;2023-04-28T15:02:39;4.32;;;1.02;;
69854;SDS011;57146;48.140;16.304;2023-04-28T15:05:07;3.75;;;0.95;;
69854;SDS011;57146;48.140;16.304;2023-04-28T15:07:34;5.15;;;0.90;;
69854;SDS011;57146;48.140;16.304;2023-04-28T15:10:01;5.20;;;1.00;;
69854;SDS011;57146;48.140;16.304;2023-04-28T15:12:27;4.27;;;1.27;;
69854;SDS011;57146;48.140;16.304;2023-04-28T15:14:55;5.93;;;1.30;;
69854;SDS011;57146;48.140;16.304;2023-04-28T15:17:22;6.20;;;1.42;;
69854;SDS011;57146;48.140;16.304;2023-04-28T15:19:49;6.40;;;2.33;;
69854;SDS011;57146;48.140;16.304;2023-04-28T15:22:15;5.70;;;1.77;;
69854;SDS011;57146;48.140;16.304;2023-04-28T15:24:43;6.73;;;1.50;;